createdAt,value
2019-03-16T00:00:23.880Z,15.80
2019-03-16T00:02:53.212Z,16.00
2019-03-16T00:05:22.717Z,21.20
2019-03-16T00:07:52.213Z,16.67
2019-03-16T00:10:21.693Z,21.77
2019-03-16T00:12:51.192Z,19.77
2019-03-16T00:15:20.580Z,17.33
2019-03-16T00:17:49.969Z,17.83
2019-03-16T00:20:19.471Z,25.70
2019-03-16T00:22:48.942Z,19.03
2019-03-16T00:25:18.412Z,19.17
2019-03-16T00:27:47.854Z,20.47
2019-03-16T00:30:17.234Z,11.30
2019-03-16T00:32:46.700Z,14.13
2019-03-16T00:35:16.136Z,15.67
2019-03-16T00:37:45.525Z,14.97
2019-03-16T00:40:15.087Z,11.10
2019-03-16T00:42:44.415Z,16.57
2019-03-16T00:45:14.064Z,22.43
2019-03-16T00:47:43.413Z,14.10
2019-03-16T00:50:13.064Z,14.57
2019-03-16T00:52:42.480Z,11.80
2019-03-16T00:55:12.042Z,15.07
2019-03-16T00:57:41.388Z,12.10
2019-03-16T01:00:11.503Z,17.97
2019-03-16T01:02:40.926Z,16.47
2019-03-16T01:05:10.371Z,12.60
2019-03-16T01:07:39.775Z,14.73
2019-03-16T01:10:09.174Z,14.20
2019-03-16T01:12:38.570Z,13.10
2019-03-16T01:15:08.329Z,17.33
2019-03-16T01:17:37.734Z,9.83
2019-03-16T01:20:07.291Z,11.37
2019-03-16T01:22:36.779Z,11.00
2019-03-16T01:25:07.230Z,11.40
2019-03-16T01:27:36.564Z,12.47
2019-03-16T01:30:06.602Z,14.40
2019-03-16T01:32:40.879Z,13.03
2019-03-16T01:35:07.069Z,11.87
2019-03-16T01:37:36.474Z,11.17
2019-03-16T01:40:06.187Z,12.40
2019-03-16T01:42:35.544Z,8.97
2019-03-16T01:45:05.088Z,15.73
2019-03-16T01:47:34.555Z,8.87
2019-03-16T01:50:03.932Z,11.80
2019-03-16T01:52:33.229Z,9.47
2019-03-16T01:55:02.633Z,13.57
2019-03-16T01:57:31.943Z,12.77
2019-03-16T02:00:01.280Z,13.47
2019-03-16T02:02:30.668Z,9.10
2019-03-16T02:05:00.168Z,15.33
2019-03-16T02:07:29.756Z,10.33
2019-03-16T02:09:59.106Z,13.97
2019-03-16T02:12:28.467Z,12.30
2019-03-16T02:14:57.888Z,14.07
2019-03-16T02:17:27.191Z,12.47
2019-03-16T02:19:56.489Z,12.77
2019-03-16T02:22:25.824Z,5.83
2019-03-16T02:24:55.251Z,12.23
2019-03-16T02:27:24.598Z,7.63
2019-03-16T02:29:53.945Z,11.90
2019-03-16T02:32:23.432Z,13.43
2019-03-16T02:34:52.873Z,14.17
2019-03-16T02:37:22.204Z,9.37
2019-03-16T02:39:51.872Z,9.00
2019-03-16T02:42:21.195Z,8.13
2019-03-16T02:44:50.672Z,8.27
2019-03-16T02:47:20.206Z,10.30
2019-03-16T02:49:49.581Z,12.20
2019-03-16T02:52:19.065Z,11.40
2019-03-16T02:54:48.415Z,15.23
2019-03-16T02:57:17.792Z,14.40
2019-03-16T02:59:47.131Z,8.97
2019-03-16T03:02:16.603Z,14.07
2019-03-16T03:04:46.631Z,15.17
2019-03-16T03:07:16.435Z,9.27
2019-03-16T03:09:45.884Z,13.70
2019-03-16T03:12:15.326Z,12.37
2019-03-16T03:14:44.751Z,13.47
2019-03-16T03:17:14.044Z,9.47
2019-03-16T03:19:43.630Z,12.07
2019-03-16T03:22:12.995Z,11.27
2019-03-16T03:24:44.546Z,10.90
2019-03-16T03:27:13.513Z,15.30
2019-03-16T03:29:42.843Z,10.67
2019-03-16T03:32:12.509Z,14.40
2019-03-16T03:34:42.067Z,10.53
2019-03-16T03:37:11.670Z,10.53
2019-03-16T03:39:41.092Z,14.13
2019-03-16T03:42:10.636Z,14.10
2019-03-16T03:44:39.943Z,13.30
2019-03-16T03:47:09.352Z,13.20
2019-03-16T03:49:39.224Z,9.30
2019-03-16T03:52:08.628Z,11.23
2019-03-16T03:54:38.039Z,12.37
2019-03-16T03:57:07.352Z,18.70
2019-03-16T03:59:36.726Z,14.97
2019-03-16T04:02:06.209Z,11.50
2019-03-16T04:04:35.573Z,13.57
2019-03-16T04:07:04.876Z,19.80
2019-03-16T04:09:34.489Z,14.77
2019-03-16T04:12:03.798Z,18.07
2019-03-16T04:14:33.140Z,16.67
2019-03-16T04:17:02.482Z,10.27
2019-03-16T04:19:31.891Z,11.57
2019-03-16T04:22:01.337Z,17.80
2019-03-16T04:24:30.799Z,16.73
2019-03-16T04:27:15.144Z,12.07
2019-03-16T04:29:31.167Z,12.20
2019-03-16T04:32:01.019Z,13.97
2019-03-16T04:34:31.531Z,11.97
2019-03-16T04:37:00.879Z,9.37
2019-03-16T04:39:30.231Z,9.00
2019-03-16T04:41:59.592Z,12.13
2019-03-16T04:44:28.930Z,12.90
2019-03-16T04:46:58.243Z,11.30
2019-03-16T04:49:27.646Z,15.13
2019-03-16T04:51:57.042Z,10.27
2019-03-16T04:54:26.417Z,9.90
2019-03-16T04:56:55.764Z,9.90
2019-03-16T04:59:25.108Z,8.40
2019-03-16T05:01:54.545Z,15.27
2019-03-16T05:04:23.871Z,15.10
2019-03-16T05:06:53.281Z,15.80
2019-03-16T05:09:22.658Z,16.63
2019-03-16T05:11:52.043Z,13.60
2019-03-16T05:14:21.369Z,11.50
2019-03-16T05:16:50.748Z,15.53
2019-03-16T05:19:20.782Z,17.73
2019-03-16T05:21:50.107Z,15.73
2019-03-16T05:24:19.424Z,16.53
2019-03-16T05:26:48.963Z,16.83
2019-03-16T05:29:18.409Z,14.63
2019-03-16T05:31:50.580Z,16.17
2019-03-16T05:34:20.447Z,18.13
2019-03-16T05:36:50.067Z,13.77
2019-03-16T05:39:19.465Z,16.67
2019-03-16T05:41:48.814Z,18.00
2019-03-16T05:44:19.592Z,20.83
2019-03-16T05:46:49.005Z,20.70
2019-03-16T05:49:18.335Z,18.20
2019-03-16T05:51:47.816Z,15.53
2019-03-16T05:54:17.479Z,15.47
2019-03-16T05:56:46.823Z,21.43
2019-03-16T05:59:16.163Z,16.50
2019-03-16T06:01:46.699Z,22.60
2019-03-16T06:04:16.016Z,20.27
2019-03-16T06:06:45.384Z,17.63
2019-03-16T06:09:14.780Z,15.93
2019-03-16T06:11:44.263Z,19.23
2019-03-16T06:14:13.658Z,15.80
2019-03-16T06:16:43.017Z,16.07
2019-03-16T06:19:12.353Z,15.50
2019-03-16T06:21:41.883Z,17.83
2019-03-16T06:24:11.318Z,17.07
2019-03-16T06:26:40.906Z,15.83
2019-03-16T06:29:10.334Z,14.27
2019-03-16T06:31:39.677Z,13.53
2019-03-16T06:34:09.008Z,14.03
2019-03-16T06:36:38.329Z,12.70
2019-03-16T06:39:08.965Z,18.07
2019-03-16T06:41:38.399Z,16.87
2019-03-16T06:44:07.839Z,17.33
2019-03-16T06:46:37.217Z,11.80
2019-03-16T06:49:06.647Z,15.20
2019-03-16T06:51:35.974Z,14.57
2019-03-16T06:54:05.503Z,14.70
2019-03-16T06:56:35.210Z,15.23
2019-03-16T06:59:04.574Z,13.13
2019-03-16T07:01:34.040Z,13.20
2019-03-16T07:04:03.554Z,14.30
2019-03-16T07:06:32.845Z,12.80
2019-03-16T07:09:02.235Z,14.13
2019-03-16T07:11:31.575Z,11.63
2019-03-16T07:14:01.148Z,11.47
2019-03-16T07:16:30.530Z,11.07
2019-03-16T07:18:59.861Z,9.90
2019-03-16T07:21:29.175Z,7.70
2019-03-16T07:23:58.580Z,7.70
2019-03-16T07:26:27.972Z,8.53
2019-03-16T07:28:57.299Z,5.20
2019-03-16T07:31:26.699Z,4.80
2019-03-16T07:33:56.355Z,4.63
2019-03-16T07:36:25.720Z,5.07
2019-03-16T07:38:55.215Z,3.00
2019-03-16T07:41:24.675Z,4.40
2019-03-16T07:43:54.071Z,3.33
2019-03-16T07:46:23.486Z,2.03
2019-03-16T07:48:52.950Z,1.83
2019-03-16T07:51:22.417Z,2.17
2019-03-16T07:53:51.796Z,2.17
2019-03-16T07:56:21.216Z,3.13
2019-03-16T07:58:50.552Z,4.60
2019-03-16T08:01:22.324Z,3.70
2019-03-16T08:03:51.796Z,3.13
2019-03-16T08:06:21.213Z,3.37
2019-03-16T08:08:50.588Z,2.23
2019-03-16T08:11:20.021Z,2.47
2019-03-16T08:13:49.575Z,3.73
2019-03-16T08:16:18.907Z,2.27
2019-03-16T08:18:48.292Z,2.30
2019-03-16T08:21:17.653Z,1.53
2019-03-16T08:23:47.204Z,2.40
2019-03-16T08:26:16.524Z,2.27
2019-03-16T08:28:45.896Z,2.80
2019-03-16T08:31:18.146Z,5.57
2019-03-16T08:33:47.544Z,4.07
2019-03-16T08:36:16.885Z,5.07
2019-03-16T08:38:46.286Z,3.43
2019-03-16T08:41:15.633Z,4.13
2019-03-16T08:43:45.141Z,2.07
2019-03-16T08:46:14.671Z,3.13
2019-03-16T08:48:44.094Z,4.50
2019-03-16T08:51:14.038Z,3.07
2019-03-16T08:53:43.581Z,4.27
2019-03-16T08:56:12.995Z,2.80
2019-03-16T08:58:42.356Z,5.17
2019-03-16T09:01:11.929Z,5.07
2019-03-16T09:03:43.965Z,2.67
2019-03-16T09:06:15.216Z,3.53
2019-03-16T09:08:44.744Z,4.63
2019-03-16T09:11:14.599Z,3.13
2019-03-16T09:13:44.308Z,3.67
2019-03-16T09:16:14.465Z,6.53
2019-03-16T09:18:43.885Z,4.60
2019-03-16T09:21:13.434Z,2.83
2019-03-16T09:23:42.865Z,7.87
2019-03-16T09:26:12.307Z,4.53
2019-03-16T09:28:41.723Z,4.53
2019-03-16T09:31:11.247Z,9.67
2019-03-16T09:33:40.634Z,4.87
2019-03-16T09:36:10.028Z,3.97
2019-03-16T09:38:39.459Z,3.40
2019-03-16T09:41:08.857Z,2.77
2019-03-16T09:43:40.335Z,2.53
2019-03-16T09:46:09.747Z,4.37
2019-03-16T09:48:42.126Z,3.80
2019-03-16T09:51:11.651Z,5.23
2019-03-16T09:53:41.133Z,5.30
2019-03-16T09:56:10.470Z,2.50
2019-03-16T09:58:39.823Z,3.07
2019-03-16T10:01:09.248Z,1.83
2019-03-16T10:03:39.568Z,6.10
2019-03-16T10:06:08.940Z,3.60
2019-03-16T10:08:38.360Z,4.37
2019-03-16T10:11:07.836Z,1.73
2019-03-16T10:13:37.150Z,4.00
2019-03-16T10:16:06.516Z,2.13
2019-03-16T10:18:35.867Z,4.37
2019-03-16T10:21:05.378Z,3.00
2019-03-16T10:23:34.715Z,4.10
2019-03-16T10:26:04.115Z,2.87
2019-03-16T10:28:43.159Z,3.77
2019-03-16T10:31:04.711Z,3.47
2019-03-16T10:33:34.127Z,1.43
2019-03-16T10:36:03.565Z,1.60
2019-03-16T10:38:33.119Z,3.23
2019-03-16T10:41:02.437Z,3.00
2019-03-16T10:43:45.748Z,1.77
2019-03-16T10:46:16.876Z,2.60
2019-03-16T10:48:46.415Z,1.80
2019-03-16T10:51:15.879Z,3.07
2019-03-16T10:53:45.308Z,2.33
2019-03-16T10:56:15.273Z,5.77
2019-03-16T10:58:55.931Z,1.77
2019-03-16T11:01:15.777Z,2.43
2019-03-16T11:03:45.143Z,3.33
2019-03-16T11:06:15.610Z,3.60
2019-03-16T11:08:46.578Z,3.07
2019-03-16T11:11:21.089Z,2.50
2019-03-16T11:13:50.460Z,2.43
2019-03-16T11:16:19.784Z,3.00
2019-03-16T11:18:49.224Z,3.47
2019-03-16T11:21:18.610Z,2.90
2019-03-16T11:23:48.043Z,1.67
2019-03-16T11:26:17.529Z,3.83
2019-03-16T11:28:46.956Z,2.43
2019-03-16T11:31:16.308Z,2.97
2019-03-16T11:33:48.305Z,5.40
2019-03-16T11:36:17.261Z,5.13
2019-03-16T11:38:46.937Z,4.13
2019-03-16T11:41:16.294Z,2.97
2019-03-16T11:43:45.665Z,3.80
2019-03-16T11:46:15.099Z,3.50
2019-03-16T11:48:44.456Z,1.77
2019-03-16T11:51:14.188Z,2.90
2019-03-16T11:53:43.653Z,3.87
2019-03-16T11:56:17.955Z,6.63
2019-03-16T11:58:44.245Z,2.13
2019-03-16T12:01:13.594Z,4.23
2019-03-16T12:03:44.269Z,2.80
2019-03-16T12:06:13.567Z,3.93
2019-03-16T12:08:42.960Z,3.03
2019-03-16T12:11:12.415Z,3.83
2019-03-16T12:13:43.935Z,4.97
2019-03-16T12:16:12.950Z,3.57
2019-03-16T12:18:42.915Z,3.63
2019-03-16T12:21:12.312Z,2.80
2019-03-16T12:23:41.673Z,6.57
2019-03-16T12:26:11.024Z,3.53
2019-03-16T12:28:40.908Z,4.20
2019-03-16T12:31:10.408Z,1.67
2019-03-16T12:33:39.892Z,3.97
2019-03-16T12:36:09.283Z,5.20
2019-03-16T12:38:38.657Z,3.87
2019-03-16T12:41:08.151Z,4.27
2019-03-16T12:43:37.588Z,2.83
2019-03-16T12:46:07.064Z,2.50
2019-03-16T12:48:36.499Z,1.60
2019-03-16T12:51:05.954Z,2.00
2019-03-16T12:53:35.467Z,3.07
2019-03-16T12:56:04.909Z,3.20
2019-03-16T12:58:34.331Z,2.00
2019-03-16T13:01:03.691Z,3.43
2019-03-16T13:03:33.165Z,4.13
2019-03-16T13:06:02.524Z,1.40
2019-03-16T13:08:31.993Z,3.17
2019-03-16T13:11:01.502Z,2.30
2019-03-16T13:13:30.941Z,4.67
2019-03-16T13:16:00.323Z,1.70
2019-03-16T13:18:32.341Z,5.53
2019-03-16T13:21:01.803Z,3.90
2019-03-16T13:23:31.352Z,1.97
2019-03-16T13:26:00.773Z,4.13
2019-03-16T13:28:30.103Z,2.17
2019-03-16T13:30:59.490Z,2.20
2019-03-16T13:33:29.240Z,2.90
2019-03-16T13:35:58.647Z,3.47
2019-03-16T13:38:28.109Z,3.97
2019-03-16T13:40:57.560Z,1.63
2019-03-16T13:43:26.950Z,1.73
2019-03-16T13:45:56.375Z,4.17
2019-03-16T13:48:25.783Z,2.50
2019-03-16T13:50:55.199Z,3.20
2019-03-16T13:53:24.620Z,3.67
2019-03-16T13:55:54.290Z,6.07
2019-03-16T13:58:23.759Z,4.70
2019-03-16T14:00:58.648Z,2.57
2019-03-16T14:03:28.098Z,4.93
2019-03-16T14:05:57.828Z,3.80
2019-03-16T14:08:27.160Z,1.53
2019-03-16T14:10:56.579Z,2.37
2019-03-16T14:13:26.217Z,7.00
2019-03-16T14:15:55.681Z,3.13
2019-03-16T14:18:25.156Z,2.03
2019-03-16T14:20:55.083Z,2.93
2019-03-16T14:23:25.014Z,4.07
2019-03-16T14:25:54.467Z,2.67
2019-03-16T14:28:24.590Z,2.30
2019-03-16T14:30:54.330Z,4.33
2019-03-16T14:33:24.774Z,3.23
2019-03-16T14:35:54.284Z,2.13
2019-03-16T14:38:23.979Z,1.97
2019-03-16T14:40:53.566Z,5.83
2019-03-16T14:43:24.412Z,3.00
2019-03-16T14:45:53.733Z,3.30
2019-03-16T14:48:23.406Z,6.37
2019-03-16T14:50:53.279Z,4.60
2019-03-16T14:53:22.656Z,3.83
2019-03-16T14:55:56.293Z,3.13
2019-03-16T14:58:25.227Z,3.70
2019-03-16T15:00:54.682Z,4.10
2019-03-16T15:03:24.681Z,2.67
2019-03-16T15:05:54.157Z,3.87
2019-03-16T15:08:23.561Z,5.40
2019-03-16T15:10:53.077Z,2.90
2019-03-16T15:13:22.459Z,3.00
2019-03-16T15:15:51.951Z,3.73
2019-03-16T15:18:21.329Z,1.80
2019-03-16T15:20:51.161Z,4.70
2019-03-16T15:23:22.547Z,3.40
2019-03-16T15:25:51.920Z,3.87
2019-03-16T15:28:21.301Z,2.30
2019-03-16T15:30:51.735Z,4.43
2019-03-16T15:33:21.237Z,3.27
2019-03-16T15:35:50.665Z,3.67
2019-03-16T15:38:20.719Z,1.73
2019-03-16T15:40:50.080Z,2.33
2019-03-16T15:43:19.524Z,3.00
2019-03-16T15:45:49.063Z,2.57
2019-03-16T15:48:18.947Z,4.07
2019-03-16T15:50:48.424Z,3.03
2019-03-16T15:53:17.852Z,4.90
2019-03-16T15:55:47.326Z,6.63
2019-03-16T15:58:17.967Z,3.03
2019-03-16T16:00:47.399Z,7.30
2019-03-16T16:03:16.832Z,2.63
2019-03-16T16:05:46.306Z,1.73
2019-03-16T16:08:15.899Z,3.30
2019-03-16T16:10:45.305Z,3.60
2019-03-16T16:13:14.737Z,5.10
2019-03-16T16:15:44.235Z,4.20
2019-03-16T16:18:13.589Z,5.80
2019-03-16T16:20:43.017Z,5.33
2019-03-16T16:23:12.366Z,5.30
2019-03-16T16:25:43.212Z,3.73
2019-03-16T16:28:12.988Z,6.40
2019-03-16T16:30:42.318Z,5.60
2019-03-16T16:33:11.754Z,3.60
2019-03-16T16:35:41.144Z,6.27
2019-03-16T16:38:10.590Z,5.33
2019-03-16T16:40:39.952Z,4.23
2019-03-16T16:43:09.722Z,2.67
2019-03-16T16:45:41.537Z,3.43
2019-03-16T16:48:13.568Z,3.93
2019-03-16T16:50:43.016Z,3.87
2019-03-16T16:53:12.372Z,2.67
2019-03-16T16:55:42.733Z,5.27
2019-03-16T16:58:12.687Z,1.87
2019-03-16T17:00:42.104Z,5.03
2019-03-16T17:03:11.537Z,3.83
2019-03-16T17:05:43.356Z,2.87
2019-03-16T17:08:12.484Z,7.70
2019-03-16T17:10:42.153Z,4.60
2019-03-16T17:13:11.609Z,3.23
2019-03-16T17:15:46.730Z,3.23
2019-03-16T17:18:16.982Z,3.97
2019-03-16T17:20:46.349Z,3.63
2019-03-16T17:23:20.493Z,3.40
2019-03-16T17:25:49.907Z,3.27
2019-03-16T17:28:20.656Z,2.70
2019-03-16T17:30:50.123Z,3.27
2019-03-16T17:33:19.488Z,3.37
2019-03-16T17:35:48.982Z,2.77
2019-03-16T17:38:19.011Z,3.73
2019-03-16T17:40:48.340Z,2.33
2019-03-16T17:43:17.704Z,3.30
2019-03-16T17:45:47.072Z,4.87
2019-03-16T17:48:16.556Z,6.07
2019-03-16T17:50:45.999Z,5.03
2019-03-16T17:53:15.365Z,5.43
2019-03-16T17:55:44.866Z,4.90
2019-03-16T17:58:14.272Z,2.87
2019-03-16T18:00:43.709Z,5.80
2019-03-16T18:03:14.354Z,7.43
2019-03-16T18:05:43.889Z,4.27
2019-03-16T18:08:13.252Z,6.90
2019-03-16T18:10:42.643Z,5.53
2019-03-16T18:13:13.205Z,6.23
2019-03-16T18:15:44.107Z,3.20
2019-03-16T18:18:13.519Z,5.03
2019-03-16T18:20:43.242Z,6.80
2019-03-16T18:23:12.696Z,5.47
2019-03-16T18:25:42.081Z,5.67
2019-03-16T18:28:11.438Z,5.27
2019-03-16T18:30:41.012Z,5.10
2019-03-16T18:33:10.459Z,5.47
2019-03-16T18:35:40.262Z,3.77
2019-03-16T18:38:10.139Z,7.13
2019-03-16T18:40:39.706Z,4.30
2019-03-16T18:43:09.114Z,4.00
2019-03-16T18:45:38.935Z,5.17
2019-03-16T18:48:08.429Z,5.63
2019-03-16T18:50:37.998Z,4.60
2019-03-16T18:53:07.415Z,8.20
2019-03-16T18:55:36.929Z,5.60
2019-03-16T18:58:06.370Z,5.93
2019-03-16T19:00:35.799Z,4.53
2019-03-16T19:03:05.207Z,6.83
2019-03-16T19:05:34.757Z,2.60
2019-03-16T19:08:04.161Z,6.47
2019-03-16T19:10:33.537Z,4.57
2019-03-16T19:13:02.866Z,8.40
2019-03-16T19:15:34.322Z,4.07
2019-03-16T19:18:06.984Z,6.10
2019-03-16T19:20:40.264Z,5.47
2019-03-16T19:23:09.982Z,5.93
2019-03-16T19:25:39.657Z,6.23
2019-03-16T19:28:10.387Z,6.93
2019-03-16T19:30:39.849Z,4.53
2019-03-16T19:33:13.208Z,6.67
2019-03-16T19:35:42.705Z,6.13
2019-03-16T19:38:13.320Z,5.63
2019-03-16T19:40:43.006Z,4.90
2019-03-16T19:43:15.384Z,5.17
2019-03-16T19:45:44.816Z,8.00
2019-03-16T19:48:14.264Z,8.07
2019-03-16T19:50:47.189Z,8.53
2019-03-16T19:53:16.602Z,6.83
2019-03-16T19:55:45.995Z,14.80
2019-03-16T19:58:15.364Z,7.73
2019-03-16T20:00:45.001Z,4.87
2019-03-16T20:03:14.418Z,4.47
2019-03-16T20:05:43.783Z,6.80
2019-03-16T20:08:13.216Z,6.43
2019-03-16T20:10:42.681Z,9.40
2019-03-16T20:13:12.073Z,7.20
2019-03-16T20:15:43.740Z,9.13
2019-03-16T20:18:12.646Z,7.30
2019-03-16T20:20:42.071Z,7.80
2019-03-16T20:23:11.515Z,6.40
2019-03-16T20:25:40.912Z,8.60
2019-03-16T20:28:10.407Z,8.47
2019-03-16T20:30:39.801Z,8.00
2019-03-16T20:33:09.178Z,5.43
2019-03-16T20:35:38.582Z,8.33
2019-03-16T20:38:08.029Z,8.23
2019-03-16T20:40:37.478Z,5.97
2019-03-16T20:43:07.920Z,9.50
2019-03-16T20:45:37.743Z,12.97
2019-03-16T20:48:07.371Z,14.57
2019-03-16T20:50:36.787Z,16.03
2019-03-16T20:53:06.349Z,17.50
2019-03-16T20:55:35.741Z,23.23
2019-03-16T20:58:05.288Z,23.27
2019-03-16T21:00:34.652Z,14.93
2019-03-16T21:03:15.584Z,17.53
2019-03-16T21:05:35.127Z,16.83
2019-03-16T21:08:04.532Z,16.90
2019-03-16T21:10:33.967Z,19.80
2019-03-16T21:13:03.350Z,16.23
2019-03-16T21:15:32.798Z,16.10
2019-03-16T21:18:02.148Z,14.37
2019-03-16T21:20:31.698Z,11.67
2019-03-16T21:23:01.119Z,11.97
2019-03-16T21:25:30.506Z,11.83
2019-03-16T21:27:59.998Z,8.87
2019-03-16T21:30:29.390Z,13.37
2019-03-16T21:32:58.864Z,6.50
2019-03-16T21:35:28.225Z,8.33
2019-03-16T21:37:57.571Z,6.20
2019-03-16T21:40:27.020Z,9.43
2019-03-16T21:42:56.365Z,6.50
2019-03-16T21:45:26.712Z,7.13
2019-03-16T21:48:00.256Z,7.00
2019-03-16T21:50:27.228Z,6.63
2019-03-16T21:52:56.712Z,11.93
2019-03-16T21:55:26.040Z,6.10
2019-03-16T21:57:55.393Z,5.93
2019-03-16T22:00:24.806Z,14.97
2019-03-16T22:02:54.257Z,7.00
2019-03-16T22:05:23.647Z,13.80
2019-03-16T22:07:53.104Z,7.63
2019-03-16T22:10:22.548Z,8.30
2019-03-16T22:12:51.925Z,5.53
2019-03-16T22:15:21.344Z,18.13
2019-03-16T22:17:51.766Z,10.07
2019-03-16T22:20:21.079Z,9.33
2019-03-16T22:22:50.564Z,12.47
2019-03-16T22:25:20.060Z,7.73
2019-03-16T22:27:51.738Z,8.17
2019-03-16T22:30:20.566Z,14.00
2019-03-16T22:32:50.082Z,10.60
2019-03-16T22:35:20.640Z,12.57
2019-03-16T22:37:49.982Z,7.83
2019-03-16T22:40:19.385Z,7.67
2019-03-16T22:42:48.816Z,8.07
2019-03-16T22:45:18.144Z,5.53
2019-03-16T22:47:47.554Z,6.60
2019-03-16T22:50:16.961Z,4.90
2019-03-16T22:52:46.565Z,4.77
2019-03-16T22:55:16.554Z,2.43
2019-03-16T22:57:47.331Z,3.30
2019-03-16T23:00:18.819Z,4.97
2019-03-16T23:02:48.227Z,4.57
2019-03-16T23:05:17.621Z,3.43
2019-03-16T23:07:46.959Z,4.47
2019-03-16T23:10:16.348Z,3.17
2019-03-16T23:12:46.075Z,3.70
2019-03-16T23:15:15.482Z,4.47
2019-03-16T23:17:44.831Z,3.13
2019-03-16T23:20:14.280Z,4.67
2019-03-16T23:22:43.645Z,3.00
2019-03-16T23:25:13.060Z,2.77
2019-03-16T23:27:42.455Z,1.90
2019-03-16T23:30:11.932Z,4.63
2019-03-16T23:32:41.259Z,2.83
2019-03-16T23:35:10.718Z,2.83
2019-03-16T23:37:40.055Z,4.63
2019-03-16T23:40:09.585Z,3.60
2019-03-16T23:42:38.964Z,2.50
2019-03-16T23:45:08.527Z,3.80
2019-03-16T23:47:37.936Z,4.23
2019-03-16T23:50:07.380Z,2.93
2019-03-16T23:52:37.284Z,2.37
2019-03-16T23:55:06.761Z,3.30
2019-03-16T23:57:36.117Z,4.57
